Time;durP1;ratioP1;P1;durP2;ratioP2;P2;SDS_P1;SDS_P2;PMS_P1;PMS_P2;Temp;Humidity;BMP_temperature;BMP_pressure;BME280_temperature;BME280_humidity;BME280_pressure;Samples;Min_cycle;Max_cycle;Signal;HPM_P1;HPM_P2
2022/10/25 00:01:24;;;;;;;29.83;23.38;;;12.80;99.90;;;;;;5062332;28;20499;-80
2022/10/25 00:03:50;;;;;;;25.08;20.83;;;12.80;99.90;;;;;;5041673;28;20547;-80
2022/10/25 00:06:19;;;;;;;26.77;22.27;;;12.70;99.90;;;;;;5051690;28;20055;-81
2022/10/25 00:08:45;;;;;;;30.55;22.52;;;12.70;99.90;;;;;;5058473;28;20041;-80
2022/10/25 00:11:29;;;;;;;28.00;22.75;;;12.70;99.90;;;;;;5059276;28;20041;-80
2022/10/25 00:13:58;;;;;;;27.65;23.90;;;12.70;99.90;;;;;;5046826;28;20083;-80
2022/10/25 00:16:31;;;;;;;32.95;24.27;;;12.70;99.90;;;;;;5061547;28;20052;-80
2022/10/25 00:18:57;;;;;;;31.90;23.90;;;12.70;99.90;;;;;;5059877;28;20122;-80
2022/10/25 00:21:23;;;;;;;30.35;24.67;;;12.70;99.90;;;;;;5042227;28;20049;-81
2022/10/25 00:23:51;;;;;;;34.15;24.58;;;12.70;99.90;;;;;;5027185;28;20132;-81
2022/10/25 00:26:17;;;;;;;34.63;26.02;;;12.70;99.90;;;;;;5019011;28;20052;-80
2022/10/25 00:28:42;;;;;;;31.20;23.55;;;12.70;99.90;;;;;;5029156;28;20041;-81
2022/10/25 00:31:11;;;;;;;32.65;24.65;;;12.70;99.90;;;;;;5060727;28;20059;-80
2022/10/25 00:33:38;;;;;;;32.78;24.65;;;12.70;99.90;;;;;;5054897;28;20827;-80
2022/10/25 00:36:09;;;;;;;34.17;24.30;;;12.70;99.90;;;;;;5040107;28;20072;-81
2022/10/25 00:38:38;;;;;;;33.85;24.30;;;12.70;99.90;;;;;;5046957;28;20055;-80
2022/10/25 00:41:05;;;;;;;33.22;24.52;;;12.80;99.90;;;;;;5041600;28;20051;-80
2022/10/25 00:43:34;;;;;;;29.27;22.80;;;12.70;99.90;;;;;;5039939;28;20048;-80
2022/10/25 00:46:05;;;;;;;30.58;23.58;;;12.80;99.90;;;;;;5049836;28;20052;-80
2022/10/25 00:48:33;;;;;;;29.80;23.88;;;12.80;99.90;;;;;;5040018;28;20083;-80
2022/10/25 00:51:03;;;;;;;31.88;24.33;;;12.90;99.90;;;;;;5033755;28;20040;-80
2022/10/25 00:53:36;;;;;;;29.40;21.13;;;12.80;99.90;;;;;;5014428;28;20037;-81
2022/10/25 00:56:23;;;;;;;30.02;22.92;;;12.90;99.90;;;;;;5038088;28;20051;-81
2022/10/25 00:58:52;;;;;;;25.83;20.77;;;12.90;99.90;;;;;;5059497;28;20912;-79
2022/10/25 01:01:18;;;;;;;27.13;21.40;;;12.90;99.90;;;;;;5058966;28;20047;-80
2022/10/25 01:03:47;;;;;;;29.02;22.15;;;12.90;99.90;;;;;;5023219;28;20040;-79
2022/10/25 01:06:27;;;;;;;28.48;21.33;;;12.90;99.90;;;;;;5059957;28;20048;-80
2022/10/25 01:08:54;;;;;;;28.65;20.73;;;12.90;99.90;;;;;;5034807;28;20111;-81
2022/10/25 01:11:20;;;;;;;26.92;20.77;;;12.80;99.90;;;;;;5056173;28;20076;-79
2022/10/25 01:13:48;;;;;;;24.30;20.52;;;12.80;99.90;;;;;;5044375;28;20033;-79
2022/10/25 01:16:21;;;;;;;27.83;20.45;;;12.80;99.90;;;;;;5028715;28;20048;-80
2022/10/25 01:19:05;;;;;;;25.10;19.63;;;12.80;99.90;;;;;;5057182;28;20080;-80
2022/10/25 01:21:50;;;;;;;28.02;21.08;;;12.80;99.90;;;;;;5040469;28;20051;-80
2022/10/25 01:24:47;;;;;;;25.55;20.40;;;12.80;99.90;;;;;;5057270;28;20155;-79
2022/10/25 01:27:24;;;;;;;26.73;19.58;;;12.80;99.90;;;;;;5048840;28;20879;-79
2022/10/25 01:30:11;;;;;;;24.55;19.67;;;12.80;99.90;;;;;;5054644;28;20127;-80
2022/10/25 01:32:39;;;;;;;27.08;20.45;;;12.80;99.90;;;;;;5057138;28;20045;-79
2022/10/25 01:35:13;;;;;;;25.50;20.85;;;12.80;99.90;;;;;;5058735;28;20044;-80
2022/10/25 01:37:56;;;;;;;31.83;21.58;;;12.80;99.90;;;;;;5047126;28;20112;-82
2022/10/25 01:40:38;;;;;;;28.35;20.80;;;12.90;99.90;;;;;;5060418;28;20052;-82
2022/10/25 01:43:34;;;;;;;31.67;22.50;;;12.90;99.90;;;;;;5048037;28;20076;-81
2022/10/25 01:46:20;;;;;;;28.17;21.55;;;12.80;99.90;;;;;;5063165;28;20451;-81
2022/10/25 01:48:50;;;;;;;29.45;22.33;;;12.80;99.90;;;;;;5055988;28;20040;-81
2022/10/25 01:51:19;;;;;;;32.90;22.95;;;12.80;99.90;;;;;;5049390;28;20048;-81
2022/10/25 01:53:49;;;;;;;28.85;21.60;;;12.90;99.90;;;;;;5041363;28;20123;-80
2022/10/25 01:56:24;;;;;;;39.08;24.70;;;12.80;99.90;;;;;;5047397;28;20049;-81
2022/10/25 01:59:21;;;;;;;29.98;22.88;;;12.90;99.90;;;;;;5044347;28;20048;-81
2022/10/25 02:02:08;;;;;;;33.15;22.42;;;12.90;99.90;;;;;;5037953;28;20051;-81
2022/10/25 02:04:39;;;;;;;31.67;21.42;;;12.90;99.90;;;;;;5043844;28;20044;-80
2022/10/25 02:07:14;;;;;;;26.73;19.58;;;12.90;99.90;;;;;;5061958;28;20053;-80
2022/10/25 02:09:52;;;;;;;27.52;20.98;;;13.00;99.90;;;;;;5061384;28;20033;-80
2022/10/25 02:12:28;;;;;;;31.30;22.00;;;13.00;99.90;;;;;;5044367;28;20053;-79
2022/10/25 02:15:09;;;;;;;35.25;21.75;;;13.00;99.90;;;;;;5074613;28;20551;-79
2022/10/25 02:17:39;;;;;;;;;;;13.00;99.90;;;;;;5047570;28;21008;-80
2022/10/25 02:20:07;;;;;;;31.65;21.13;;;13.00;99.90;;;;;;5061276;28;19921;-80
2022/10/25 02:22:33;;;;;;;30.33;21.05;;;13.00;99.90;;;;;;5076706;28;20049;-80
2022/10/25 02:25:00;;;;;;;27.27;19.75;;;13.00;99.90;;;;;;5020698;28;20439;-79
2022/10/25 02:27:29;;;;;;;29.77;20.10;;;13.00;99.90;;;;;;5031115;28;20045;-79
2022/10/25 02:29:55;;;;;;;34.10;21.73;;;13.10;99.90;;;;;;5049083;28;20048;-80
2022/10/25 02:32:22;;;;;;;25.20;19.33;;;13.10;99.90;;;;;;5051534;28;20495;-80
2022/10/25 02:34:48;;;;;;;25.35;19.13;;;13.10;99.90;;;;;;5045220;28;20064;-80
2022/10/25 02:37:14;;;;;;;26.35;19.15;;;13.10;99.90;;;;;;5048325;28;20141;-80
2022/10/25 02:39:39;;;;;;;30.13;20.08;;;13.10;99.90;;;;;;5045617;28;20579;-80
2022/10/25 02:42:05;;;;;;;29.10;20.13;;;13.10;99.90;;;;;;5046969;28;20506;-80
2022/10/25 02:44:31;;;;;;;27.27;19.58;;;13.10;99.90;;;;;;5033069;28;20048;-79
2022/10/25 02:46:57;;;;;;;27.88;19.33;;;13.10;99.90;;;;;;5045965;28;20036;-80
2022/10/25 02:49:23;;;;;;;26.05;19.67;;;13.10;99.90;;;;;;5060198;28;20123;-79
2022/10/25 02:51:49;;;;;;;27.10;20.15;;;13.10;99.90;;;;;;5065452;28;20037;-80
2022/10/25 02:54:14;;;;;;;27.55;20.13;;;13.10;99.90;;;;;;5029260;28;21409;-79
2022/10/25 02:56:40;;;;;;;30.83;21.27;;;13.10;99.90;;;;;;5046187;28;20043;-80
2022/10/25 02:59:06;;;;;;;26.10;21.35;;;13.10;99.90;;;;;;5060211;28;20120;-81
2022/10/25 03:01:32;;;;;;;31.30;22.55;;;13.10;99.90;;;;;;5046125;28;20048;-80
2022/10/25 03:03:58;;;;;;;34.13;22.85;;;13.20;99.90;;;;;;5047561;28;20043;-80
2022/10/25 03:06:26;;;;;;;29.05;21.70;;;13.20;99.90;;;;;;5028159;28;20433;-79
2022/10/25 03:08:52;;;;;;;26.95;20.70;;;13.20;99.90;;;;;;5030282;28;20050;-80
2022/10/25 03:11:18;;;;;;;40.63;23.35;;;13.20;99.90;;;;;;5026340;28;20119;-79
2022/10/25 03:13:43;;;;;;;30.90;21.55;;;13.20;99.90;;;;;;5048062;28;20127;-80
2022/10/25 03:16:09;;;;;;;27.95;21.05;;;13.20;99.90;;;;;;5044684;28;20469;-79
2022/10/25 03:18:35;;;;;;;31.23;20.58;;;13.20;99.90;;;;;;5027274;28;20044;-78
2022/10/25 03:21:02;;;;;;;28.77;20.42;;;13.20;99.90;;;;;;5061602;28;21041;-79
2022/10/25 03:23:31;;;;;;;29.38;20.33;;;13.20;99.90;;;;;;5049650;28;20372;-80
2022/10/25 03:26:01;;;;;;;36.25;23.92;;;13.20;99.90;;;;;;5029993;28;20048;-80
2022/10/25 03:28:28;;;;;;;30.20;19.87;;;13.20;99.90;;;;;;5077201;28;20052;-78
2022/10/25 03:30:55;;;;;;;26.80;19.27;;;13.10;99.90;;;;;;5046880;28;20315;-79
2022/10/25 03:33:22;;;;;;;30.48;20.00;;;13.10;99.90;;;;;;5031721;28;20059;-79
2022/10/25 03:35:52;;;;;;;29.48;18.67;;;13.10;99.90;;;;;;5051724;28;20431;-80
2022/10/25 03:38:18;;;;;;;25.70;18.65;;;13.10;99.90;;;;;;5047096;28;20049;-79
2022/10/25 03:40:44;;;;;;;31.05;19.98;;;13.10;99.90;;;;;;5024506;28;20118;-79
2022/10/25 03:43:10;;;;;;;29.63;18.85;;;13.10;99.90;;;;;;5058427;28;20036;-80
2022/10/25 03:45:36;;;;;;;33.60;21.38;;;13.10;99.90;;;;;;5062072;28;20068;-81
2022/10/25 03:48:02;;;;;;;27.88;20.08;;;13.00;99.90;;;;;;5058077;28;20072;-79
2022/10/25 03:50:28;;;;;;;27.05;18.35;;;13.00;99.90;;;;;;5044902;28;20044;-79
2022/10/25 03:52:53;;;;;;;31.65;20.40;;;13.00;99.90;;;;;;5047664;28;20073;-79
2022/10/25 03:55:19;;;;;;;29.00;20.17;;;13.00;99.90;;;;;;5044171;28;20051;-80
2022/10/25 03:57:45;;;;;;;25.20;19.05;;;13.00;99.90;;;;;;5045711;28;20044;-80
2022/10/25 04:00:11;;;;;;;24.15;18.08;;;13.00;99.90;;;;;;5043925;28;20055;-80
2022/10/25 04:02:37;;;;;;;26.88;19.85;;;13.00;99.90;;;;;;5054460;28;20524;-80
2022/10/25 04:05:03;;;;;;;27.52;19.45;;;13.00;99.90;;;;;;5046704;28;20047;-79
2022/10/25 04:07:29;;;;;;;27.27;19.65;;;13.10;99.90;;;;;;5020727;28;20037;-80
2022/10/25 04:09:55;;;;;;;30.35;19.95;;;13.10;99.90;;;;;;5042747;28;20368;-80
2022/10/25 04:12:20;;;;;;;28.00;19.40;;;13.10;99.90;;;;;;5054319;28;20519;-79
2022/10/25 04:14:46;;;;;;;31.55;18.90;;;13.10;99.90;;;;;;5050846;28;20053;-80
2022/10/25 04:17:12;;;;;;;27.17;18.30;;;13.10;99.90;;;;;;5055137;28;20049;-80
2022/10/25 04:19:38;;;;;;;30.77;19.67;;;13.10;99.90;;;;;;5053415;28;20385;-80
2022/10/25 04:22:03;;;;;;;28.55;18.65;;;13.10;99.90;;;;;;5013088;28;20072;-80
2022/10/25 04:24:32;;;;;;;25.38;18.60;;;13.10;99.90;;;;;;5058528;28;20044;-80
2022/10/25 04:27:01;;;;;;;29.45;20.00;;;13.10;99.90;;;;;;5056288;28;20056;-79
2022/10/25 04:29:27;;;;;;;30.00;20.95;;;13.10;99.90;;;;;;5055225;28;20079;-80
2022/10/25 04:31:52;;;;;;;30.92;22.23;;;13.10;99.90;;;;;;5032037;28;20049;-80
2022/10/25 04:34:18;;;;;;;29.58;20.00;;;13.10;99.90;;;;;;5037077;28;20122;-79
2022/10/25 04:36:44;;;;;;;31.90;21.20;;;13.10;99.90;;;;;;5030804;28;20045;-79
2022/10/25 04:39:10;;;;;;;34.85;20.77;;;13.10;99.90;;;;;;5045963;28;20491;-80
2022/10/25 04:41:35;;;;;;;34.83;21.75;;;13.20;99.90;;;;;;5050235;28;20127;-80
2022/10/25 04:44:01;;;;;;;33.03;20.05;;;13.20;99.90;;;;;;5017706;28;20036;-81
2022/10/25 04:46:27;;;;;;;30.90;20.13;;;13.20;99.90;;;;;;5035491;28;20071;-80
2022/10/25 04:48:53;;;;;;;39.50;24.40;;;13.20;99.90;;;;;;5031343;28;20047;-80
2022/10/25 04:51:19;;;;;;;37.15;22.50;;;13.20;99.90;;;;;;5038123;28;20059;-80
2022/10/25 04:53:45;;;;;;;32.78;20.80;;;13.20;99.90;;;;;;5045965;28;20064;-79
2022/10/25 04:56:13;;;;;;;30.17;20.63;;;13.20;99.90;;;;;;5058504;28;20052;-80
2022/10/25 04:58:39;;;;;;;30.00;19.92;;;13.20;99.90;;;;;;5049190;28;20493;-80
2022/10/25 05:01:08;;;;;;;30.25;19.52;;;13.30;99.90;;;;;;5049480;28;20122;-80
2022/10/25 05:03:35;;;;;;;33.83;21.98;;;13.30;99.90;;;;;;5055645;28;20049;-81
2022/10/25 05:06:08;;;;;;;34.22;21.55;;;13.30;99.90;;;;;;5057545;28;20038;-79
2022/10/25 05:08:35;;;;;;;34.50;20.35;;;13.20;99.90;;;;;;5038601;28;20099;-82
2022/10/25 05:11:00;;;;;;;27.42;18.95;;;13.20;99.90;;;;;;5054458;28;20064;-80
2022/10/25 05:13:29;;;;;;;39.47;21.60;;;13.20;99.90;;;;;;5040872;28;20079;-81
2022/10/25 05:15:56;;;;;;;31.83;18.15;;;13.10;99.90;;;;;;5049093;28;20049;-80
2022/10/25 05:18:22;;;;;;;25.05;18.17;;;13.10;99.90;;;;;;5054326;28;20129;-81
2022/10/25 05:20:55;;;;;;;27.00;17.13;;;13.10;99.90;;;;;;5051481;28;20569;-80
2022/10/25 05:23:22;;;;;;;26.52;18.88;;;13.10;99.90;;;;;;5057392;28;20040;-81
2022/10/25 05:25:58;;;;;;;24.52;17.45;;;13.00;99.90;;;;;;5027979;28;20156;-79
2022/10/25 05:28:25;;;;;;;29.33;18.30;;;13.00;99.90;;;;;;5063468;28;20040;-79
2022/10/25 05:30:50;;;;;;;23.48;16.70;;;13.00;99.90;;;;;;5043720;28;20548;-79
2022/10/25 05:33:16;;;;;;;29.15;17.65;;;12.90;99.90;;;;;;5027486;28;20048;-79
2022/10/25 05:35:42;;;;;;;26.95;17.20;;;12.90;99.90;;;;;;5058635;28;20044;-81
2022/10/25 05:38:07;;;;;;;24.83;17.27;;;12.90;99.90;;;;;;5041218;28;20106;-80
2022/10/25 05:40:33;;;;;;;26.38;16.30;;;12.80;99.90;;;;;;5041949;28;20889;-80
2022/10/25 05:42:59;;;;;;;25.92;17.88;;;12.80;99.90;;;;;;5040919;28;20109;-81
2022/10/25 05:45:25;;;;;;;27.52;18.63;;;12.80;99.90;;;;;;5033210;28;20816;-81
2022/10/25 05:47:51;;;;;;;26.40;17.95;;;12.80;99.90;;;;;;5030785;28;20040;-79
2022/10/25 05:50:16;;;;;;;26.38;17.65;;;12.80;99.90;;;;;;5020815;28;20441;-79
2022/10/25 05:52:43;;;;;;;30.17;16.73;;;12.80;99.90;;;;;;5024779;28;20090;-79
2022/10/25 05:55:09;;;;;;;18.20;14.13;;;12.70;99.90;;;;;;5042538;28;20723;-79
2022/10/25 05:57:35;;;;;;;22.38;13.73;;;12.70;99.90;;;;;;5042633;28;20055;-79
2022/10/25 06:00:01;;;;;;;23.15;13.70;;;12.70;99.90;;;;;;5053720;28;20117;-78
2022/10/25 06:02:27;;;;;;;23.83;13.70;;;12.70;99.90;;;;;;5058515;28;20466;-79
2022/10/25 06:04:53;;;;;;;19.83;13.65;;;12.60;99.90;;;;;;5043170;28;20557;-79
2022/10/25 06:07:19;;;;;;;23.38;13.45;;;12.60;99.90;;;;;;5026003;28;20044;-78
2022/10/25 06:09:45;;;;;;;25.50;13.90;;;12.60;99.90;;;;;;5042887;28;20399;-79
2022/10/25 06:12:11;;;;;;;27.85;14.23;;;12.60;99.90;;;;;;5044793;28;20052;-79
2022/10/25 06:14:36;;;;;;;26.42;15.27;;;12.60;99.90;;;;;;5007059;28;20052;-80
2022/10/25 06:17:05;;;;;;;23.27;15.20;;;12.60;99.90;;;;;;5042752;28;20048;-80
2022/10/25 06:19:32;;;;;;;25.67;16.42;;;12.60;99.90;;;;;;5048302;28;20064;-79
2022/10/25 06:22:01;;;;;;;29.58;16.08;;;12.60;99.90;;;;;;5031248;28;20467;-78
2022/10/25 06:24:26;;;;;;;25.13;15.70;;;12.70;99.90;;;;;;5044496;28;20074;-78
2022/10/25 06:26:55;;;;;;;23.15;15.90;;;12.70;99.90;;;;;;5043289;28;20045;-78
2022/10/25 06:29:20;;;;;;;25.42;15.73;;;12.70;99.90;;;;;;5049000;28;20055;-78
2022/10/25 06:31:48;;;;;;;32.13;16.85;;;12.70;99.90;;;;;;5051358;28;20045;-78
2022/10/25 06:34:14;;;;;;;28.17;16.30;;;12.70;99.90;;;;;;5062454;28;20094;-78
2022/10/25 06:36:39;;;;;;;34.92;17.55;;;12.70;99.90;;;;;;5025746;28;20483;-78
2022/10/25 06:39:05;;;;;;;27.73;15.60;;;12.80;99.90;;;;;;5029822;28;20052;-78
2022/10/25 06:41:31;;;;;;;25.02;16.00;;;12.80;99.90;;;;;;5060700;28;20040;-79
2022/10/25 06:43:59;;;;;;;32.53;17.00;;;12.80;99.90;;;;;;5047069;28;20044;-80
2022/10/25 06:46:31;;;;;;;29.73;16.75;;;12.80;99.90;;;;;;5045525;28;20513;-78
2022/10/25 06:49:04;;;;;;;29.77;16.60;;;12.80;99.90;;;;;;5043227;28;20167;-78
2022/10/25 06:51:32;;;;;;;28.80;16.20;;;12.80;99.90;;;;;;5029690;28;20048;-78
2022/10/25 06:54:08;;;;;;;31.40;16.42;;;12.80;99.90;;;;;;5080141;28;20608;-78
2022/10/25 06:56:35;;;;;;;27.92;16.42;;;12.80;99.90;;;;;;5043609;28;20193;-78
2022/10/25 06:59:01;;;;;;;26.23;15.70;;;12.80;99.90;;;;;;5057292;28;20656;-79
2022/10/25 07:01:27;;;;;;;33.92;17.10;;;12.90;99.90;;;;;;5044520;28;20048;-78
2022/10/25 07:03:54;;;;;;;27.40;15.88;;;12.90;99.90;;;;;;5028388;28;20044;-79
2022/10/25 07:06:34;;;;;;;29.35;15.88;;;12.90;99.90;;;;;;5044804;28;20044;-79
2022/10/25 07:09:01;;;;;;;26.08;15.40;;;12.90;99.90;;;;;;5028969;28;20041;-78
2022/10/25 07:11:28;;;;;;;31.67;15.90;;;12.90;99.90;;;;;;5040630;28;20052;-78
2022/10/25 07:13:57;;;;;;;26.85;15.00;;;12.90;99.90;;;;;;5062475;28;20037;-78
2022/10/25 07:16:24;;;;;;;28.10;15.18;;;12.90;99.90;;;;;;5018706;28;20402;-78
2022/10/25 07:18:49;;;;;;;27.90;16.55;;;12.90;99.90;;;;;;5026557;28;20044;-76
2022/10/25 07:21:20;;;;;;;26.70;15.48;;;12.90;99.90;;;;;;5041568;28;20053;-78
2022/10/25 07:23:47;;;;;;;30.25;16.38;;;13.00;99.90;;;;;;5059685;28;20119;-79
2022/10/25 07:26:14;;;;;;;30.20;17.08;;;13.00;99.90;;;;;;5024048;28;20049;-77
2022/10/25 07:28:44;;;;;;;26.17;16.52;;;13.00;99.90;;;;;;5051968;28;20049;-78
2022/10/25 07:31:24;;;;;;;29.55;17.33;;;13.00;99.90;;;;;;5042323;28;20040;-78
2022/10/25 07:33:52;;;;;;;27.45;16.63;;;13.10;99.90;;;;;;5056301;28;20051;-78
2022/10/25 07:36:18;;;;;;;32.67;17.88;;;13.10;99.90;;;;;;5047235;28;20060;-78
2022/10/25 07:38:44;;;;;;;29.58;17.30;;;13.10;99.90;;;;;;5023957;28;20569;-78
2022/10/25 07:41:10;;;;;;;36.20;19.35;;;13.10;99.90;;;;;;5061291;28;20427;-79
2022/10/25 07:43:36;;;;;;;38.97;17.35;;;13.20;99.90;;;;;;5044321;28;20124;-78
2022/10/25 07:46:02;;;;;;;36.97;19.40;;;13.20;99.90;;;;;;5063133;28;20494;-80
2022/10/25 07:48:31;;;;;;;32.75;19.55;;;13.30;99.90;;;;;;5042818;28;20086;-79
2022/10/25 07:51:01;;;;;;;37.92;19.48;;;13.30;99.90;;;;;;5062466;28;20045;-79
2022/10/25 07:53:26;;;;;;;38.97;19.98;;;13.30;99.90;;;;;;5043999;28;20055;-77
2022/10/25 07:55:54;;;;;;;28.55;19.02;;;13.40;99.90;;;;;;5044901;28;20483;-78
2022/10/25 07:58:20;;;;;;;31.58;19.85;;;13.40;99.90;;;;;;5058104;28;20041;-79
2022/10/25 08:00:47;;;;;;;34.28;20.02;;;13.40;99.90;;;;;;5061565;28;20068;-78
2022/10/25 08:03:14;;;;;;;29.35;19.70;;;13.50;99.90;;;;;;5062280;28;20049;-78
2022/10/25 08:05:43;;;;;;;32.47;19.33;;;13.60;99.90;;;;;;5075905;28;20048;-77
2022/10/25 08:08:09;;;;;;;33.08;19.50;;;13.60;99.90;;;;;;5061089;28;20052;-79
2022/10/25 08:10:35;;;;;;;35.63;20.42;;;13.60;99.90;;;;;;5027456;28;20041;-79
2022/10/25 08:13:01;;;;;;;37.60;21.85;;;13.60;99.90;;;;;;5031482;28;20039;-78
2022/10/25 08:15:27;;;;;;;31.38;20.33;;;13.70;99.90;;;;;;5025769;28;20063;-78
2022/10/25 08:18:03;;;;;;;29.17;20.67;;;13.70;99.90;;;;;;5029899;28;20060;-78
2022/10/25 08:20:29;;;;;;;28.80;20.08;;;13.80;99.90;;;;;;5045927;28;20036;-79
2022/10/25 08:22:59;;;;;;;29.48;19.40;;;13.70;99.90;;;;;;5062641;28;20121;-80
2022/10/25 08:25:27;;;;;;;33.03;20.10;;;13.70;99.90;;;;;;5025196;28;20045;-80
2022/10/25 08:27:52;;;;;;;30.05;20.40;;;13.70;99.90;;;;;;5046964;28;20040;-81
2022/10/25 08:30:18;;;;;;;29.88;18.95;;;13.70;99.90;;;;;;5047133;28;20040;-82
2022/10/25 08:32:44;;;;;;;26.40;19.00;;;13.70;99.90;;;;;;5045629;28;20149;-81
2022/10/25 08:35:10;;;;;;;24.83;18.50;;;13.70;99.90;;;;;;5053304;28;20540;-81
2022/10/25 08:37:35;;;;;;;24.70;17.70;;;13.70;99.90;;;;;;5046692;28;20032;-80
2022/10/25 08:40:01;;;;;;;26.27;19.02;;;13.70;99.90;;;;;;5058449;28;20056;-80
2022/10/25 08:43:01;;;;;;;32.80;19.73;;;13.70;99.90;;;;;;5027992;28;20502;-80
2022/10/25 08:45:32;;;;;;;34.45;20.63;;;13.80;99.90;;;;;;5045115;28;20048;-80
2022/10/25 08:48:00;;;;;;;30.38;20.35;;;13.80;99.90;;;;;;5062751;28;20040;-81
2022/10/25 08:50:46;;;;;;;31.08;19.63;;;13.90;99.90;;;;;;5045012;28;20139;-80
2022/10/25 08:53:30;;;;;;;26.77;18.77;;;13.90;99.90;;;;;;5074319;28;20051;-80
2022/10/25 08:55:59;;;;;;;27.73;18.38;;;14.00;99.90;;;;;;5061089;28;20044;-80
2022/10/25 08:58:35;;;;;;;23.23;17.65;;;14.00;99.90;;;;;;5043260;28;20048;-81
2022/10/25 09:01:11;;;;;;;28.33;17.23;;;14.10;99.90;;;;;;5055577;28;20064;-81
2022/10/25 09:03:39;;;;;;;28.40;17.02;;;14.10;99.90;;;;;;5040414;28;20101;-82
2022/10/25 09:06:07;;;;;;;22.85;17.67;;;14.10;99.90;;;;;;5057596;28;20036;-81
2022/10/25 09:08:51;;;;;;;22.92;15.80;;;14.10;99.90;;;;;;5044096;28;20048;-81
2022/10/25 09:11:47;;;;;;;26.70;15.32;;;14.10;99.90;;;;;;5057837;28;20117;-82
2022/10/25 09:14:48;;;;;;;20.05;13.88;;;14.10;99.90;;;;;;5061443;28;20053;-80
2022/10/25 09:17:21;;;;;;;19.95;13.30;;;14.20;99.90;;;;;;5042575;28;20403;-81
2022/10/25 09:20:17;;;;;;;30.23;14.13;;;14.20;99.90;;;;;;5059118;28;20048;-81
2022/10/25 09:23:04;;;;;;;20.38;12.80;;;14.30;99.90;;;;;;5060539;28;20032;-81
2022/10/25 09:25:40;;;;;;;23.05;13.38;;;14.30;99.90;;;;;;5059545;28;20349;-80
2022/10/25 09:28:13;;;;;;;23.40;14.07;;;14.40;99.90;;;;;;5045945;28;20118;-81
2022/10/25 09:30:42;;;;;;;19.55;11.90;;;14.40;99.90;;;;;;5062272;28;20044;-81
2022/10/25 09:33:15;;;;;;;19.08;10.73;;;14.40;99.90;;;;;;5058063;28;20060;-81
2022/10/25 09:35:47;;;;;;;18.05;11.02;;;14.40;99.90;;;;;;5043639;28;20076;-81
2022/10/25 09:38:31;;;;;;;17.35;9.85;;;14.50;99.90;;;;;;5060523;28;20033;-81
2022/10/25 09:41:31;;;;;;;16.50;10.43;;;14.50;99.90;;;;;;5057504;28;20044;-80
2022/10/25 09:44:18;;;;;;;20.70;9.98;;;14.60;99.90;;;;;;5056647;28;20082;-82
2022/10/25 09:46:51;;;;;;;16.90;9.57;;;14.60;99.90;;;;;;5055592;28;20075;-81
2022/10/25 09:49:48;;;;;;;19.27;9.38;;;14.60;99.90;;;;;;5058668;28;20121;-81
2022/10/25 09:52:44;;;;;;;19.35;10.15;;;14.60;99.90;;;;;;5060251;28;20045;-79
2022/10/25 09:55:34;;;;;;;17.08;9.00;;;14.60;99.90;;;;;;5063838;28;20491;-81
2022/10/25 09:58:01;;;;;;;20.40;9.63;;;14.70;99.90;;;;;;5047521;28;20406;-82
2022/10/25 10:00:27;;;;;;;15.50;9.45;;;14.70;99.90;;;;;;5042187;28;20048;-81
2022/10/25 10:02:54;;;;;;;19.40;10.45;;;14.70;99.90;;;;;;5060691;28;20048;-81
2022/10/25 10:05:21;;;;;;;14.15;9.00;;;14.80;99.90;;;;;;5041534;28;20128;-82
2022/10/25 10:07:48;;;;;;;14.80;8.73;;;14.80;99.90;;;;;;5044262;28;20421;-81
2022/10/25 10:10:25;;;;;;;15.30;8.70;;;14.80;99.90;;;;;;5062755;28;20101;-80
2022/10/25 10:13:05;;;;;;;16.55;8.70;;;14.90;99.90;;;;;;5055939;28;20051;-81
2022/10/25 10:15:35;;;;;;;;;;;14.90;99.90;;;;;;5059876;28;20058;-81
2022/10/25 10:18:24;;;;;;;16.52;8.60;;;14.90;99.90;;;;;;5039374;28;20125;-81
2022/10/25 10:20:58;;;;;;;13.18;7.88;;;14.90;99.90;;;;;;5053884;28;20542;-82
2022/10/25 10:23:35;;;;;;;17.83;8.25;;;14.90;99.90;;;;;;5039066;28;20036;-82
2022/10/25 10:26:09;;;;;;;14.35;8.57;;;15.00;99.90;;;;;;5057969;28;20340;-80
2022/10/25 10:28:35;;;;;;;15.80;7.68;;;15.00;99.90;;;;;;5046148;28;20055;-81
2022/10/25 10:31:04;;;;;;;12.35;6.88;;;15.00;99.90;;;;;;5060824;28;20491;-81
2022/10/25 10:33:31;;;;;;;16.25;6.63;;;15.00;99.90;;;;;;5039246;28;20071;-81
2022/10/25 10:36:20;;;;;;;15.90;6.97;;;14.90;99.90;;;;;;5042470;28;20514;-80
2022/10/25 10:38:47;;;;;;;14.10;6.38;;;15.00;99.90;;;;;;5056080;28;20119;-80
2022/10/25 10:41:25;;;;;;;14.10;6.50;;;15.00;99.90;;;;;;5020844;28;20060;-81
2022/10/25 10:44:06;;;;;;;11.80;5.75;;;15.00;99.90;;;;;;5064138;28;20040;-81
2022/10/25 10:46:32;;;;;;;12.27;5.88;;;15.00;99.90;;;;;;5058360;28;20649;-81
2022/10/25 10:49:01;;;;;;;13.13;6.40;;;15.10;99.90;;;;;;5055760;28;20033;-80
2022/10/25 10:51:37;;;;;;;15.48;7.40;;;15.10;99.90;;;;;;5039961;28;20049;-80
2022/10/25 10:54:25;;;;;;;16.42;6.40;;;15.20;99.90;;;;;;5054808;28;20072;-81
2022/10/25 10:57:06;;;;;;;12.27;5.97;;;15.20;99.90;;;;;;5039042;28;20055;-81
2022/10/25 10:59:51;;;;;;;14.32;6.47;;;15.20;99.90;;;;;;5062083;28;20365;-79
2022/10/25 11:02:29;;;;;;;9.93;5.63;;;15.30;99.90;;;;;;5058065;28;20410;-81
2022/10/25 11:04:56;;;;;;;11.85;5.65;;;15.30;99.90;;;;;;5060458;28;20190;-80
2022/10/25 11:07:33;;;;;;;13.27;5.78;;;15.40;99.90;;;;;;5046698;28;20063;-81
2022/10/25 11:10:15;;;;;;;13.30;5.45;;;15.50;99.90;;;;;;5061064;28;20082;-79
2022/10/25 11:12:43;;;;;;;12.77;5.93;;;15.50;99.90;;;;;;5044674;28;20047;-80
2022/10/25 11:15:13;;;;;;;10.70;5.63;;;15.50;99.90;;;;;;5039506;28;20051;-80
2022/10/25 11:18:02;;;;;;;11.00;5.30;;;15.60;99.90;;;;;;5028188;28;20052;-80
2022/10/25 11:20:50;;;;;;;11.82;5.40;;;15.60;99.90;;;;;;5044648;28;20037;-78
2022/10/25 11:23:31;;;;;;;13.82;6.35;;;15.60;99.90;;;;;;5059089;28;20949;-79
2022/10/25 11:26:20;;;;;;;12.35;6.03;;;15.70;99.90;;;;;;5063445;28;20146;-78
2022/10/25 11:29:21;;;;;;;11.67;5.80;;;15.80;99.90;;;;;;5056499;28;20053;-78
2022/10/25 11:32:25;;;;;;;12.82;5.60;;;15.80;99.90;;;;;;5058248;28;20838;-79
2022/10/25 11:35:21;;;;;;;12.13;6.25;;;15.80;99.90;;;;;;5041765;28;20045;-78
2022/10/25 11:37:52;;;;;;;8.43;5.93;;;15.70;99.90;;;;;;5042046;28;20502;-79
2022/10/25 11:40:21;;;;;;;10.88;5.60;;;15.60;99.90;;;;;;5061810;28;20209;-78
2022/10/25 11:43:24;;;;;;;13.35;5.80;;;15.60;99.90;;;;;;5044232;28;20406;-78
2022/10/25 11:46:03;;;;;;;10.20;5.32;;;15.50;99.90;;;;;;5054694;28;20225;-77
2022/10/25 11:49:01;;;;;;;13.93;5.93;;;15.50;99.90;;;;;;5058906;28;20044;-77
2022/10/25 11:51:50;;;;;;;11.00;4.93;;;15.50;99.90;;;;;;5041876;28;20403;-77
2022/10/25 11:54:41;;;;;;;11.68;5.03;;;15.50;99.90;;;;;;5042185;28;20461;-79
2022/10/25 11:57:37;;;;;;;10.77;4.35;;;15.50;99.90;;;;;;5032844;28;20438;-79
2022/10/25 12:00:10;;;;;;;11.90;4.95;;;15.50;99.90;;;;;;5041729;28;20086;-77
2022/10/25 12:02:51;;;;;;;12.07;4.80;;;15.50;99.90;;;;;;5063897;28;20041;-77
2022/10/25 12:05:32;;;;;;;12.35;4.60;;;15.60;99.90;;;;;;5054552;28;20376;-79
2022/10/25 12:08:03;;;;;;;10.13;4.22;;;15.60;99.90;;;;;;5043470;28;20141;-79
2022/10/25 12:10:39;;;;;;;11.57;4.45;;;15.70;99.90;;;;;;5074265;28;20046;-79
2022/10/25 12:13:10;;;;;;;10.85;4.38;;;15.70;99.90;;;;;;5063179;28;20052;-80
2022/10/25 12:15:40;;;;;;;10.05;4.47;;;15.70;99.90;;;;;;5060096;28;20435;-79
2022/10/25 12:18:13;;;;;;;10.73;4.28;;;15.70;99.90;;;;;;5061645;28;20047;-77
2022/10/25 12:20:39;;;;;;;9.57;4.07;;;15.80;99.90;;;;;;5059957;28;20090;-79
2022/10/25 12:23:11;;;;;;;10.73;4.32;;;15.90;99.90;;;;;;5060654;28;20040;-79
2022/10/25 12:25:46;;;;;;;7.78;4.38;;;16.00;99.90;;;;;;5056473;28;20059;-78
2022/10/25 12:28:28;;;;;;;9.57;3.92;;;16.00;99.90;;;;;;5073061;28;21834;-80
2022/10/25 12:31:22;;;;;;;11.35;4.07;;;16.00;99.90;;;;;;5058452;28;20499;-78
2022/10/25 12:34:10;;;;;;;9.93;5.03;;;16.00;99.90;;;;;;5072621;28;20068;-79
2022/10/25 12:36:43;;;;;;;7.95;3.95;;;16.00;99.90;;;;;;5044094;28;20060;-80
2022/10/25 12:39:40;;;;;;;9.05;3.83;;;16.00;99.90;;;;;;5039186;28;20048;-79
2022/10/25 12:42:17;;;;;;;8.52;3.90;;;16.00;99.90;;;;;;5045182;28;20036;-79
2022/10/25 12:45:24;;;;;;;9.80;4.07;;;16.00;99.90;;;;;;5052902;28;20056;-81
2022/10/25 12:48:15;;;;;;;8.85;4.20;;;15.90;99.90;;;;;;5057006;28;20048;-80
2022/10/25 12:50:48;;;;;;;11.73;3.88;;;15.90;99.90;;;;;;5057226;28;20052;-80
2022/10/25 12:53:55;;;;;;;9.20;3.50;;;15.80;99.90;;;;;;5041400;28;20055;-80
2022/10/25 12:56:53;;;;;;;12.25;4.13;;;15.70;99.90;;;;;;5044395;28;20386;-80